Time;durP1;ratioP1;P1;durP2;ratioP2;P2;SDS_P1;SDS_P2;PMS_P1;PMS_P2;Temp;Humidity;BMP_temperature;BMP_pressure;BME280_temperature;BME280_humidity;BME280_pressure;Samples;Min_cycle;Max_cycle;Signal;HPM_P1;HPM_P2
2023/04/09 00:01:33;0.00;0.00;0.62;0.00;0.00;0.62;3.87;3.33;;;23.70;21.40;;;;;;2272692;61;20393;-63
2023/04/09 00:04:17;0.00;0.00;0.62;0.00;0.00;0.62;3.70;3.20;;;23.70;21.40;;;;;;2272655;61;20358;-64
2023/04/09 00:07:02;0.00;0.00;0.62;0.00;0.00;0.62;3.63;3.33;;;23.70;21.40;;;;;;2272738;61;20447;-65
2023/04/09 00:09:47;0.00;0.00;0.62;0.00;0.00;0.62;2.83;2.50;;;23.70;21.60;;;;;;2272608;61;20412;-66
2023/04/09 00:12:33;0.00;0.00;0.62;0.00;0.00;0.62;3.50;3.20;;;23.70;21.40;;;;;;2272120;61;20462;-62
2023/04/09 00:15:17;0.00;0.00;0.62;0.00;0.00;0.62;3.90;3.30;;;23.60;21.80;;;;;;2272535;61;20370;-63
2023/04/09 00:18:02;0.00;0.00;0.62;0.00;0.00;0.62;3.80;3.40;;;23.70;21.40;;;;;;2272701;61;20382;-65
2023/04/09 00:20:47;0.00;0.00;0.62;0.00;0.00;0.62;3.67;2.60;;;23.70;21.40;;;;;;2272464;61;20358;-66
2023/04/09 00:23:32;0.00;0.00;0.62;0.00;0.00;0.62;5.83;3.60;;;23.70;21.40;;;;;;2272527;61;20443;-64
2023/04/09 00:26:17;0.00;0.00;0.62;0.00;0.00;0.62;3.70;3.30;;;23.70;21.40;;;;;;2272685;61;20365;-65
2023/04/09 00:29:04;0.00;0.00;0.62;0.00;0.00;0.62;4.33;3.43;;;23.60;21.30;;;;;;2272221;61;20910;-66
2023/04/09 00:31:49;0.00;0.00;0.62;0.00;0.00;0.62;3.67;3.10;;;23.60;21.30;;;;;;2272865;61;20350;-66
2023/04/09 00:34:34;0.00;0.00;0.62;0.00;0.00;0.62;3.87;3.23;;;23.60;21.30;;;;;;2272560;61;20844;-64
2023/04/09 00:37:19;0.00;0.00;0.62;0.00;0.00;0.62;4.70;3.47;;;23.60;21.30;;;;;;2272293;61;20382;-64
2023/04/09 00:40:06;0.00;0.00;0.62;0.00;0.00;0.62;3.73;3.20;;;23.60;21.30;;;;;;2272731;61;20369;-63
2023/04/09 00:42:50;0.00;0.00;0.62;0.00;0.00;0.62;3.90;3.47;;;23.60;21.30;;;;;;2272548;61;20488;-66
2023/04/09 00:45:37;0.00;0.00;0.62;0.00;0.00;0.62;3.50;3.03;;;23.60;21.30;;;;;;2272747;61;20820;-65
2023/04/09 00:48:22;0.00;0.00;0.62;0.00;0.00;0.62;4.10;3.17;;;23.60;21.30;;;;;;2269583;61;20390;-64
2023/04/09 00:51:07;0.00;0.00;0.62;0.00;0.00;0.62;3.43;3.10;;;23.60;21.30;;;;;;2272602;61;20416;-65
2023/04/09 00:53:53;0.00;0.00;0.62;0.00;0.00;0.62;4.47;3.43;;;23.60;21.30;;;;;;2272599;61;20921;-65
2023/04/09 00:56:38;0.00;0.00;0.62;0.00;0.00;0.62;4.20;3.40;;;23.60;21.30;;;;;;2272813;61;20476;-65
2023/04/09 00:59:24;0.00;0.00;0.62;0.00;0.00;0.62;3.40;3.10;;;23.60;21.30;;;;;;2272450;61;20393;-65
2023/04/09 01:02:11;0.00;0.00;0.62;0.00;0.00;0.62;4.43;3.60;;;23.60;21.30;;;;;;2272593;60;20415;-63
2023/04/09 01:04:56;0.00;0.00;0.62;0.00;0.00;0.62;3.83;3.20;;;23.60;21.30;;;;;;2272695;61;20388;-66
2023/04/09 01:07:56;0.00;0.00;0.62;0.00;0.00;0.62;3.77;3.37;;;23.60;21.30;;;;;;2272578;61;20424;-67
2023/04/09 01:10:52;0.00;0.00;0.62;0.00;0.00;0.62;4.03;3.00;;;23.60;21.30;;;;;;2272001;61;20448;-65
2023/04/09 01:13:46;0.00;0.00;0.62;0.00;0.00;0.62;3.70;3.10;;;23.60;21.30;;;;;;2272418;61;20394;-64
2023/04/09 01:16:34;0.00;0.00;0.62;0.00;0.00;0.62;4.73;3.70;;;23.60;21.30;;;;;;2272699;61;20459;-64
2023/04/09 01:19:43;0.00;0.00;0.62;0.00;0.00;0.62;3.63;3.13;;;23.60;21.30;;;;;;2269341;61;20783;-63
2023/04/09 01:22:46;0.00;0.00;0.62;0.00;0.00;0.62;4.87;3.97;;;23.60;21.30;;;;;;2269227;61;20367;-64
2023/04/09 01:25:45;0.00;0.00;0.62;0.00;0.00;0.62;3.33;3.03;;;23.50;21.20;;;;;;2269294;61;20461;-60
2023/04/09 01:28:37;0.00;0.00;0.62;0.00;0.00;0.62;4.03;3.30;;;23.50;21.20;;;;;;2269251;61;20385;-68
2023/04/09 01:31:29;0.00;0.00;0.62;0.00;0.00;0.62;4.17;3.60;;;23.50;21.20;;;;;;2269515;61;20362;-62
2023/04/09 01:34:16;0.00;0.00;0.62;0.00;0.00;0.62;3.57;3.27;;;23.50;21.20;;;;;;2269040;61;20436;-65
2023/04/09 01:37:03;0.00;0.00;0.62;0.00;0.00;0.62;3.43;3.13;;;23.50;21.20;;;;;;2269149;61;20492;-63
2023/04/09 01:39:47;0.00;0.00;0.62;0.00;0.00;0.62;3.80;3.20;;;23.50;21.30;;;;;;2269192;61;20848;-65
2023/04/09 01:42:34;0.00;0.00;0.62;0.00;0.00;0.62;3.13;2.67;;;23.50;21.20;;;;;;2272549;61;20366;-64
2023/04/09 01:45:22;0.00;0.00;0.62;0.00;0.00;0.62;4.00;3.60;;;23.50;21.20;;;;;;2272434;61;20359;-65
2023/04/09 01:48:07;0.00;0.00;0.62;0.00;0.00;0.62;4.00;3.60;;;23.50;21.20;;;;;;2269436;61;20801;-65
2023/04/09 01:50:53;0.00;0.00;0.62;0.00;0.00;0.62;3.77;3.37;;;23.50;21.20;;;;;;2269035;61;20420;-64
2023/04/09 01:53:37;0.00;0.00;0.62;0.00;0.00;0.62;4.23;3.23;;;23.50;21.20;;;;;;2272617;61;20441;-68
2023/04/09 01:56:22;0.00;0.00;0.62;0.00;0.00;0.62;3.77;3.10;;;23.50;21.20;;;;;;2272619;61;20397;-64
2023/04/09 01:59:08;0.00;0.00;0.62;0.00;0.00;0.62;3.70;3.27;;;23.50;21.20;;;;;;2269129;61;20419;-63
2023/04/09 02:01:59;0.00;0.00;0.62;0.00;0.00;0.62;4.70;3.77;;;23.50;21.20;;;;;;2269156;61;20373;-62
2023/04/09 02:04:48;0.00;0.00;0.62;0.00;0.00;0.62;3.53;3.00;;;23.50;21.20;;;;;;2272516;61;20351;-62
2023/04/09 02:07:35;0.00;0.00;0.62;0.00;0.00;0.62;4.10;3.70;;;23.50;21.20;;;;;;2338317;39;20437;-65
2023/04/09 02:10:23;0.00;0.00;0.62;0.00;0.00;0.62;3.97;3.57;;;23.50;21.20;;;;;;2273421;61;20396;-62
2023/04/09 02:13:12;0.00;0.00;0.62;0.00;0.00;0.62;3.60;3.30;;;23.50;21.30;;;;;;2268930;61;20386;-65
2023/04/09 02:15:58;0.00;0.00;0.62;0.00;0.00;0.62;4.50;4.00;;;23.50;21.20;;;;;;2273359;61;20405;-60
2023/04/09 02:18:45;0.00;0.00;0.62;0.00;0.00;0.62;4.20;3.70;;;23.50;21.20;;;;;;2268847;61;20934;-66
2023/04/09 02:21:30;0.00;0.00;0.62;0.00;0.00;0.62;4.10;3.60;;;23.40;21.20;;;;;;2265939;61;20419;-62
2023/04/09 02:24:15;0.00;0.00;0.62;0.00;0.00;0.62;4.47;3.40;;;23.50;21.20;;;;;;2269206;61;20355;-63
2023/04/09 02:27:01;0.00;0.00;0.62;0.00;0.00;0.62;4.17;3.30;;;23.50;21.20;;;;;;2269214;61;20995;-65
2023/04/09 02:29:45;0.00;0.00;0.62;0.00;0.00;0.62;5.13;3.97;;;23.50;21.20;;;;;;2269203;61;20398;-64
2023/04/09 02:32:30;0.00;0.00;0.62;0.00;0.00;0.62;3.70;3.20;;;23.50;21.20;;;;;;2269227;61;20878;-62
2023/04/09 02:35:16;0.00;0.00;0.62;0.00;0.00;0.62;4.67;4.13;;;23.50;21.20;;;;;;2265621;61;20428;-60
2023/04/09 02:38:01;0.00;0.00;0.62;0.00;0.00;0.62;3.50;3.20;;;23.40;21.20;;;;;;2269167;61;20390;-67
2023/04/09 02:40:46;0.00;0.00;0.62;0.00;0.00;0.62;4.00;3.50;;;23.40;21.20;;;;;;2268969;61;20363;-63
2023/04/09 02:43:31;0.00;0.00;0.62;0.00;0.00;0.62;3.87;3.50;;;23.40;21.20;;;;;;2269026;61;20763;-64
2023/04/09 02:46:15;0.00;0.00;0.62;0.00;0.00;0.62;3.83;3.53;;;23.40;21.20;;;;;;2268617;61;20930;-64
2023/04/09 02:49:00;0.00;0.00;0.62;0.00;0.00;0.62;4.20;3.70;;;23.40;21.20;;;;;;2268925;61;20346;-65
2023/04/09 02:51:46;0.00;0.00;0.62;0.00;0.00;0.62;3.43;3.13;;;23.40;21.20;;;;;;2268982;61;20405;-64
2023/04/09 02:54:31;0.00;0.00;0.62;0.00;0.00;0.62;3.73;3.40;;;23.40;21.20;;;;;;2265615;61;20393;-65
2023/04/09 02:57:15;0.00;0.00;0.62;0.00;0.00;0.62;3.90;3.50;;;23.40;21.20;;;;;;2268778;61;20382;-67
2023/04/09 03:00:00;0.00;0.00;0.62;0.00;0.00;0.62;3.87;3.43;;;23.40;21.20;;;;;;2268768;61;20798;-64
2023/04/09 03:02:45;0.00;0.00;0.62;0.00;0.00;0.62;3.97;3.40;;;23.40;21.20;;;;;;2265885;61;20385;-64
2023/04/09 03:05:29;0.00;0.00;0.62;0.00;0.00;0.62;3.90;3.00;;;23.40;21.20;;;;;;2269000;61;20363;-65
2023/04/09 03:08:15;0.00;0.00;0.62;0.00;0.00;0.62;4.00;3.60;;;23.40;21.20;;;;;;2269023;61;20390;-66
2023/04/09 03:11:00;0.00;0.00;0.62;0.00;0.00;0.62;3.87;3.40;;;23.40;21.20;;;;;;2265692;61;20493;-65
2023/04/09 03:13:45;0.00;0.00;0.62;0.00;0.00;0.62;4.37;3.90;;;23.40;21.20;;;;;;2268588;61;20386;-65
2023/04/09 03:16:29;0.00;0.00;0.62;0.00;0.00;0.62;3.67;3.37;;;23.40;21.20;;;;;;2268901;61;20367;-63
2023/04/09 03:19:14;0.00;0.00;0.62;0.00;0.00;0.62;3.73;3.20;;;23.40;21.20;;;;;;2265627;61;20762;-62
2023/04/09 03:21:59;0.00;0.00;0.62;0.00;0.00;0.62;4.00;3.33;;;23.40;21.20;;;;;;2265829;61;20393;-65
2023/04/09 03:24:48;0.00;0.00;0.62;0.00;0.00;0.62;4.27;3.60;;;23.40;21.20;;;;;;2265434;61;20375;-64
2023/04/09 03:27:32;0.00;0.00;0.62;0.00;0.00;0.62;4.10;3.70;;;23.40;21.20;;;;;;2268710;61;21027;-63
2023/04/09 03:30:18;0.00;0.00;0.62;0.00;0.00;0.62;4.50;3.53;;;23.40;21.20;;;;;;2265629;61;20437;-62
2023/04/09 03:33:03;0.00;0.00;0.62;0.00;0.00;0.62;4.83;3.63;;;23.40;21.20;;;;;;2268418;61;20525;-65
2023/04/09 03:35:52;0.00;0.00;0.62;0.00;0.00;0.62;3.40;3.10;;;23.40;21.20;;;;;;2265459;61;20875;-64
2023/04/09 03:38:45;0.00;0.00;0.62;0.00;0.00;0.62;3.97;3.60;;;23.40;21.20;;;;;;2265713;61;20461;-60
2023/04/09 03:41:43;0.00;0.00;0.62;0.00;0.00;0.62;3.63;3.27;;;23.30;21.20;;;;;;2265368;61;20379;-63
2023/04/09 03:44:31;0.00;0.00;0.62;0.00;0.00;0.62;3.53;3.20;;;23.40;21.20;;;;;;2265893;61;20409;-64
2023/04/09 03:47:37;0.00;0.00;0.62;0.00;0.00;0.62;3.70;3.40;;;23.30;21.20;;;;;;2268683;61;20429;-63
2023/04/09 03:50:21;0.00;0.00;0.62;0.00;0.00;0.62;3.10;2.80;;;23.30;21.10;;;;;;2268233;61;20382;-64
2023/04/09 03:53:10;0.00;0.00;0.62;0.00;0.00;0.62;3.63;3.30;;;23.40;21.20;;;;;;2265427;61;20445;-65
2023/04/09 03:55:55;0.00;0.00;0.62;0.00;0.00;0.62;3.83;3.40;;;23.30;21.10;;;;;;2265759;61;20406;-64
2023/04/09 03:58:47;0.00;0.00;0.62;0.00;0.00;0.62;3.77;3.30;;;23.30;21.10;;;;;;2265636;61;20979;-63
2023/04/09 04:01:33;0.00;0.00;0.62;0.00;0.00;0.62;4.17;3.30;;;23.30;21.20;;;;;;2265659;61;20413;-64
2023/04/09 04:04:19;0.00;0.00;0.62;0.00;0.00;0.62;3.67;3.10;;;23.30;21.20;;;;;;2265511;61;20754;-62
2023/04/09 04:07:11;0.00;0.00;0.62;0.00;0.00;0.62;3.47;3.17;;;23.30;21.20;;;;;;2265713;61;20939;-65
2023/04/09 04:10:04;0.00;0.00;0.62;0.00;0.00;0.62;3.53;2.90;;;23.30;21.20;;;;;;2268109;61;20381;-66
2023/04/09 04:12:49;0.00;0.00;0.62;0.00;0.00;0.62;4.40;3.33;;;23.30;21.10;;;;;;2265441;61;20383;-62
2023/04/09 04:15:44;0.00;0.00;0.62;0.00;0.00;0.62;3.53;3.23;;;23.30;21.20;;;;;;2265666;61;20414;-65
2023/04/09 04:18:31;0.00;0.00;0.62;0.00;0.00;0.62;4.13;3.73;;;23.30;21.20;;;;;;2265357;61;20959;-64
2023/04/09 04:21:16;0.00;0.00;0.62;0.00;0.00;0.62;3.43;3.10;;;23.30;21.20;;;;;;2265347;61;20401;-65
2023/04/09 04:24:05;0.00;0.00;0.62;0.00;0.00;0.62;3.90;3.50;;;23.30;21.20;;;;;;2265535;61;20363;-64
2023/04/09 04:26:50;0.00;0.00;0.62;0.00;0.00;0.62;3.60;3.30;;;23.30;21.20;;;;;;2265251;61;20438;-62
2023/04/09 04:29:37;0.00;0.00;0.62;0.00;0.00;0.62;3.60;3.30;;;23.30;21.20;;;;;;2265423;61;20760;-62
2023/04/09 04:32:32;0.00;0.00;0.62;0.00;0.00;0.62;3.33;3.03;;;23.30;21.20;;;;;;2265339;61;20817;-63
2023/04/09 04:35:22;0.00;0.00;0.62;0.00;0.00;0.62;3.80;3.30;;;23.30;21.20;;;;;;2265476;61;20866;-65
2023/04/09 04:38:11;0.00;0.00;0.62;0.00;0.00;0.62;4.53;3.97;;;23.30;21.20;;;;;;2269081;55;20411;-65
2023/04/09 04:40:57;0.00;0.00;0.62;0.00;0.00;0.62;3.57;3.27;;;23.30;21.20;;;;;;2265439;61;20371;-65
2023/04/09 04:43:42;0.00;0.00;0.62;0.00;0.00;0.62;4.20;3.20;;;23.30;21.20;;;;;;2265609;61;20376;-62
2023/04/09 04:46:34;0.00;0.00;0.62;0.00;0.00;0.62;3.20;2.93;;;23.30;21.20;;;;;;2268162;61;20760;-62
2023/04/09 04:49:21;0.00;0.00;0.62;0.00;0.00;0.62;3.50;3.20;;;23.30;21.20;;;;;;2268400;61;20760;-63
2023/04/09 04:52:06;0.00;0.00;0.62;0.00;0.00;0.62;3.03;2.70;;;23.30;21.20;;;;;;2265511;61;20908;-63
2023/04/09 04:54:52;0.00;0.00;0.62;0.00;0.00;0.62;3.57;3.03;;;23.30;21.20;;;;;;2265312;61;20911;-64
2023/04/09 04:57:40;0.00;0.00;0.62;0.00;0.00;0.62;3.70;3.23;;;23.20;21.70;;;;;;2265547;61;20394;-63
2023/04/09 05:00:26;0.00;0.00;0.62;0.00;0.00;0.62;4.03;3.40;;;23.30;21.20;;;;;;2265310;61;20347;-64
2023/04/09 05:03:12;0.00;0.00;0.62;0.00;0.00;0.62;3.33;3.03;;;23.30;21.20;;;;;;2265455;61;20367;-64
2023/04/09 05:06:07;0.00;0.00;0.62;0.00;0.00;0.62;3.70;3.30;;;23.30;21.20;;;;;;2265293;61;20921;-65
2023/04/09 05:09:00;0.00;0.00;0.62;0.00;0.00;0.62;3.70;3.37;;;23.30;21.20;;;;;;2265274;61;20352;-64
2023/04/09 05:11:50;0.00;0.00;0.62;0.00;0.00;0.62;4.67;3.37;;;23.20;21.20;;;;;;2265405;61;20362;-64
2023/04/09 05:14:38;0.00;0.00;0.62;0.00;0.00;0.62;4.33;3.93;;;23.20;21.20;;;;;;2265298;61;20456;-63
2023/04/09 05:17:23;0.00;0.00;0.62;0.00;0.00;0.62;3.73;3.37;;;23.20;21.20;;;;;;2268559;61;20429;-63
2023/04/09 05:20:10;0.00;0.00;0.62;0.00;0.00;0.62;3.70;3.30;;;23.20;21.20;;;;;;2265380;61;20370;-65
2023/04/09 05:23:11;0.00;0.00;0.62;0.00;0.00;0.62;4.10;3.43;;;23.20;21.20;;;;;;2265052;61;20930;-62
2023/04/09 05:26:01;0.00;0.00;0.62;0.00;0.00;0.62;3.80;3.47;;;23.20;21.20;;;;;;2265286;61;20432;-64
2023/04/09 05:28:54;0.00;0.00;0.62;0.00;0.00;0.62;3.83;3.07;;;23.20;21.20;;;;;;2265184;61;20429;-65
2023/04/09 05:31:41;0.00;0.00;0.62;0.00;0.00;0.62;3.47;3.17;;;23.20;21.20;;;;;;2265438;61;20473;-64
2023/04/09 05:34:32;0.00;0.00;0.62;0.00;0.00;0.62;4.00;3.60;;;23.20;21.20;;;;;;2265037;61;20424;-62
2023/04/09 05:37:17;0.00;0.00;0.62;0.00;0.00;0.62;3.40;3.10;;;23.20;21.20;;;;;;2265364;61;20438;-65
2023/04/09 05:40:11;0.00;0.00;0.62;0.00;0.00;0.62;3.30;3.00;;;23.20;21.20;;;;;;2268087;61;20371;-65
2023/04/09 05:42:56;0.00;0.00;0.62;0.00;0.00;0.62;3.60;3.17;;;23.20;21.20;;;;;;2265509;61;20363;-64
2023/04/09 05:45:54;0.00;0.00;0.62;0.00;0.00;0.62;3.37;3.00;;;23.20;21.20;;;;;;2265124;61;20370;-64
2023/04/09 05:48:38;0.00;0.00;0.62;0.00;0.00;0.62;3.43;3.13;;;23.20;21.20;;;;;;2265480;61;20433;-64
2023/04/09 05:51:24;0.00;0.00;0.62;0.00;0.00;0.62;4.50;4.03;;;23.20;21.20;;;;;;2265979;61;20443;-61
2023/04/09 05:54:09;0.00;0.00;0.62;0.00;0.00;0.62;3.83;3.43;;;23.20;21.20;;;;;;2265575;61;20906;-69
2023/04/09 05:56:57;0.00;0.00;0.62;0.00;0.00;0.62;3.30;2.70;;;23.20;21.20;;;;;;2265778;61;20428;-62
2023/04/09 05:59:41;0.00;0.00;0.62;0.00;0.00;0.62;3.70;3.37;;;23.20;21.20;;;;;;2265975;61;20769;-68
2023/04/09 06:02:26;0.00;0.00;0.62;0.00;0.00;0.62;4.27;3.73;;;23.20;21.20;;;;;;2265732;61;20367;-64
2023/04/09 06:05:12;0.00;0.00;0.62;0.00;0.00;0.62;4.70;3.43;;;23.20;21.20;;;;;;2269239;61;20355;-63
2023/04/09 06:07:57;0.00;0.00;0.62;0.00;0.00;0.62;3.90;3.23;;;23.20;21.20;;;;;;2265768;61;20736;-64
2023/04/09 06:10:41;0.00;0.00;0.62;0.00;0.00;0.62;3.80;3.37;;;23.20;21.20;;;;;;2265512;61;20370;-65
2023/04/09 06:13:28;0.00;0.00;0.62;0.00;0.00;0.62;3.63;3.33;;;23.20;21.20;;;;;;2265665;61;20422;-65
2023/04/09 06:16:12;0.00;0.00;0.62;0.00;0.00;0.62;3.83;3.40;;;23.20;21.20;;;;;;2269026;61;20412;-62
2023/04/09 06:18:57;0.00;0.00;0.62;0.00;0.00;0.62;3.93;3.57;;;23.20;21.20;;;;;;2268591;61;20943;-65
2023/04/09 06:21:41;0.00;0.00;0.62;0.00;0.00;0.62;4.30;3.63;;;23.20;21.20;;;;;;2269226;61;20346;-65
2023/04/09 06:24:26;0.00;0.00;0.62;0.00;0.00;0.62;4.10;3.43;;;23.20;21.20;;;;;;2268931;61;20440;-63
2023/04/09 06:27:11;0.00;0.00;0.62;0.00;0.00;0.62;3.77;3.37;;;23.20;21.20;;;;;;2269110;61;20432;-70
2023/04/09 06:29:57;0.00;0.00;0.62;0.00;0.00;0.62;4.27;3.40;;;23.20;21.20;;;;;;2268818;61;20359;-63
2023/04/09 06:32:41;0.00;0.00;0.62;0.00;0.00;0.62;4.10;3.70;;;23.20;21.20;;;;;;2269226;61;20761;-65
2023/04/09 06:35:26;0.00;0.00;0.62;0.00;0.00;0.62;3.90;3.50;;;23.20;21.20;;;;;;2269171;61;20359;-64
2023/04/09 06:38:10;0.00;0.00;0.62;0.00;0.00;0.62;4.23;3.27;;;23.20;21.20;;;;;;2269138;61;20383;-65
2023/04/09 06:40:56;0.00;0.00;0.62;0.00;0.00;0.62;3.60;3.30;;;23.10;21.10;;;;;;2268785;61;20374;-64
2023/04/09 06:43:41;0.00;0.00;0.62;0.00;0.00;0.62;3.63;3.10;;;23.20;21.20;;;;;;2269335;61;20339;-62
2023/04/09 06:46:28;0.00;0.00;0.62;0.00;0.00;0.62;3.20;2.90;;;23.20;21.20;;;;;;2268474;61;20903;-63
2023/04/09 06:49:12;0.00;0.00;0.62;0.00;0.00;0.62;3.93;3.43;;;23.10;21.10;;;;;;2269105;61;20890;-62
2023/04/09 06:51:57;0.00;0.00;0.62;0.00;0.00;0.62;3.40;2.77;;;23.10;21.10;;;;;;2268211;61;20417;-65
2023/04/09 06:54:42;0.00;0.00;0.62;0.00;0.00;0.62;3.60;3.07;;;23.10;21.10;;;;;;2268653;61;20386;-62
2023/04/09 06:57:27;0.00;0.00;0.62;0.00;0.00;0.62;3.70;3.30;;;23.10;21.20;;;;;;2269094;61;20409;-64
2023/04/09 07:00:13;0.00;0.00;0.62;0.00;0.00;0.62;3.50;2.80;;;23.10;21.10;;;;;;2268637;61;20425;-64
2023/04/09 07:02:59;0.00;0.00;0.62;0.00;0.00;0.62;3.50;3.17;;;23.10;21.20;;;;;;2268767;61;20498;-64
2023/04/09 07:05:44;0.00;0.00;0.62;0.00;0.00;0.62;3.50;3.20;;;23.10;21.20;;;;;;2269124;61;20391;-65
2023/04/09 07:08:29;0.00;0.00;0.62;0.00;0.00;0.62;3.30;3.00;;;23.10;21.20;;;;;;2268974;61;20471;-58
2023/04/09 07:11:15;0.00;0.00;0.62;0.00;0.00;0.62;3.60;3.13;;;23.10;21.20;;;;;;2268933;61;20363;-64
2023/04/09 07:14:00;0.00;0.00;0.62;0.00;0.00;0.62;3.47;2.97;;;23.10;21.20;;;;;;2268577;61;20425;-64
2023/04/09 07:16:45;0.00;0.00;0.62;0.00;0.00;0.62;3.43;3.00;;;23.10;21.70;;;;;;2268910;61;20354;-62
2023/04/09 07:19:31;0.00;0.00;0.62;0.00;0.00;0.62;3.03;2.60;;;23.10;21.20;;;;;;2268757;61;20348;-64
2023/04/09 07:22:16;0.00;0.00;0.62;0.00;0.00;0.62;3.20;2.90;;;23.10;21.20;;;;;;2269074;61;20359;-64
2023/04/09 07:25:00;0.00;0.00;0.62;0.00;0.00;0.62;3.83;3.30;;;23.10;21.20;;;;;;2265364;61;20378;-62
2023/04/09 07:27:45;0.00;0.00;0.62;0.00;0.00;0.62;3.57;3.00;;;23.10;21.20;;;;;;2268622;61;20385;-65
2023/04/09 07:30:30;0.00;0.00;0.62;0.00;0.00;0.62;3.10;2.63;;;23.10;21.20;;;;;;2268234;61;20779;-67
2023/04/09 07:33:15;0.00;0.00;0.62;0.00;0.00;0.62;4.13;3.73;;;23.10;21.20;;;;;;2268712;61;20401;-65
2023/04/09 07:36:01;0.00;0.00;0.62;0.00;0.00;0.62;3.17;2.87;;;23.10;21.20;;;;;;2268490;61;20394;-65
2023/04/09 07:38:46;0.00;0.00;0.62;0.00;0.00;0.62;3.43;3.13;;;23.10;21.20;;;;;;2268332;61;20391;-65
2023/04/09 07:41:30;0.00;0.00;0.62;0.00;0.00;0.62;3.50;3.20;;;23.10;21.20;;;;;;2268645;61;20358;-65
2023/04/09 07:44:15;0.00;0.00;0.62;0.00;0.00;0.62;3.97;2.90;;;23.10;21.30;;;;;;2268683;61;20400;-63
2023/04/09 07:47:00;0.00;0.00;0.62;0.00;0.00;0.62;4.03;3.63;;;23.10;21.30;;;;;;2268326;61;20475;-65
2023/04/09 07:49:44;0.00;0.00;0.62;0.00;0.00;0.62;3.30;3.00;;;23.10;21.30;;;;;;2268405;61;20405;-66
2023/04/09 07:52:31;0.00;0.00;0.62;0.00;0.00;0.62;3.90;3.47;;;23.10;21.30;;;;;;2268370;61;20363;-64
2023/04/09 07:55:16;0.00;0.00;0.62;0.00;0.00;0.62;4.23;3.53;;;23.10;21.30;;;;;;2268371;61;20429;-65
2023/04/09 07:58:02;0.00;0.00;0.62;0.00;0.00;0.62;3.70;3.40;;;23.10;21.30;;;;;;2268641;61;20433;-66
2023/04/09 08:00:47;0.00;0.00;0.62;0.00;0.00;0.62;3.83;3.33;;;23.10;21.30;;;;;;2268169;61;20760;-65
2023/04/09 08:03:32;0.00;0.00;0.62;0.00;0.00;0.62;4.50;3.73;;;23.10;21.30;;;;;;2268676;61;20355;-65
2023/04/09 08:06:17;0.00;0.00;0.62;0.00;0.00;0.62;3.57;3.27;;;23.10;21.30;;;;;;2268521;61;20370;-65
2023/04/09 08:09:03;0.00;0.00;0.62;0.00;0.00;0.62;4.30;3.70;;;23.10;21.30;;;;;;2268066;61;20413;-65
2023/04/09 08:11:49;0.00;0.00;0.62;0.00;0.00;0.62;4.33;3.80;;;23.10;21.40;;;;;;2268325;61;20447;-66
2023/04/09 08:14:33;0.00;0.00;0.62;0.00;0.00;0.62;3.90;3.50;;;23.10;21.30;;;;;;2268022;61;20965;-66
2023/04/09 08:17:18;0.00;0.00;0.62;0.00;0.00;0.62;4.03;3.57;;;23.10;21.40;;;;;;2268578;61;20831;-64
2023/04/09 08:20:04;0.00;0.00;0.62;0.00;0.00;0.62;4.30;3.90;;;23.10;21.40;;;;;;2264738;61;20385;-65
2023/04/09 08:22:48;0.00;0.00;0.62;0.00;0.00;0.62;4.53;3.70;;;23.10;21.40;;;;;;2268382;61;20898;-65
2023/04/09 08:25:34;0.00;0.00;0.62;0.00;0.00;0.62;4.17;3.77;;;23.10;21.40;;;;;;2268772;61;20777;-65
2023/04/09 08:28:19;0.00;0.00;0.62;0.00;0.00;0.62;4.80;4.13;;;23.10;21.40;;;;;;2268371;61;20427;-65
2023/04/09 08:31:04;0.00;0.00;0.62;0.00;0.00;0.62;5.63;5.03;;;23.10;21.40;;;;;;2264914;61;20405;-65
2023/04/09 08:33:49;0.00;0.00;0.62;0.00;0.00;0.62;3.90;3.60;;;23.10;21.40;;;;;;2268620;61;20395;-66
2023/04/09 08:36:34;0.00;0.00;0.62;0.00;0.00;0.62;4.10;3.70;;;23.10;21.40;;;;;;2268074;61;20360;-65
2023/04/09 08:39:20;0.00;0.00;0.62;0.00;0.00;0.62;4.60;4.10;;;23.10;21.40;;;;;;2268033;61;20909;-65
2023/04/09 08:42:07;0.00;0.00;0.62;0.00;0.00;0.62;4.57;4.07;;;23.10;21.40;;;;;;2268622;61;20835;-67
2023/04/09 08:44:52;0.00;0.00;0.62;0.00;0.00;0.62;5.17;4.07;;;23.10;21.40;;;;;;2267967;61;20424;-65
2023/04/09 08:50:19;0.00;0.00;0.62;0.00;0.00;0.62;5.70;5.20;;;23.10;21.50;;;;;;2260857;61;20435;-68
2023/04/09 08:53:07;0.00;0.00;0.62;0.00;0.00;0.62;4.87;4.30;;;23.10;21.50;;;;;;2264101;61;20379;-65
2023/04/09 08:55:51;0.00;0.00;0.62;0.00;0.00;0.62;4.83;4.33;;;23.10;21.50;;;;;;2264640;61;20799;-66
2023/04/09 08:58:41;0.00;0.00;0.62;0.00;0.00;0.62;4.73;4.00;;;23.10;21.50;;;;;;2267808;61;20372;-64
2023/04/09 09:01:27;0.00;0.00;0.62;0.00;0.00;0.62;4.67;4.27;;;23.10;21.50;;;;;;2268468;61;20409;-65
2023/04/09 09:04:12;0.00;0.00;0.62;0.00;0.00;0.62;5.20;3.83;;;23.10;21.50;;;;;;2268037;61;20370;-65
2023/04/09 09:07:05;0.00;0.00;0.62;0.00;0.00;0.62;4.40;4.00;;;23.10;21.50;;;;;;2267737;61;20378;-64
2023/04/09 09:09:52;0.00;0.00;0.62;0.00;0.00;0.62;4.40;4.00;;;23.10;21.50;;;;;;2268253;61;20815;-65
2023/04/09 09:12:39;0.00;0.00;0.62;0.00;0.00;0.62;4.20;3.70;;;23.20;21.60;;;;;;2268163;61;20943;-64
2023/04/09 09:15:27;0.00;0.00;0.62;0.00;0.00;0.62;4.27;3.87;;;23.10;21.50;;;;;;2268002;61;20776;-65
2023/04/09 09:18:13;0.00;0.00;0.62;0.00;0.00;0.62;5.07;4.23;;;23.10;21.60;;;;;;2268025;61;20424;-65
2023/04/09 09:21:10;0.00;0.00;0.62;0.00;0.00;0.62;3.90;3.60;;;23.20;21.60;;;;;;2268162;61;20406;-64
2023/04/09 09:23:56;0.00;0.00;0.62;0.00;0.00;0.62;5.00;4.50;;;23.20;21.60;;;;;;2268020;61;20875;-65
2023/04/09 09:26:42;0.00;0.00;0.62;0.00;0.00;0.62;4.27;3.87;;;23.20;21.60;;;;;;2267998;61;20406;-66
2023/04/09 09:29:27;0.00;0.00;0.62;0.00;0.00;0.62;4.50;4.00;;;23.20;21.60;;;;;;2267508;61;20359;-64
2023/04/09 09:32:14;0.00;0.00;0.62;0.00;0.00;0.62;4.77;4.10;;;23.20;21.60;;;;;;2268492;61;20398;-68
2023/04/09 09:35:02;0.00;0.00;0.62;0.00;0.00;0.62;4.20;3.80;;;23.20;21.60;;;;;;2256885;61;20947;-64
2023/04/09 09:37:59;0.00;0.00;0.62;0.00;0.00;0.62;5.23;4.53;;;23.20;21.60;;;;;;2268120;61;20425;-65
2023/04/09 09:40:44;0.00;0.00;0.62;0.00;0.00;0.62;4.20;3.80;;;23.20;21.60;;;;;;2267820;61;20363;-66
2023/04/09 09:43:40;0.00;0.00;0.62;0.00;0.00;0.62;4.43;4.03;;;23.20;21.60;;;;;;2268153;61;20413;-65
2023/04/09 09:46:26;0.00;0.00;0.62;0.00;0.00;0.62;4.30;3.90;;;23.20;21.60;;;;;;2268446;61;20933;-65
2023/04/09 09:49:12;0.00;0.00;0.62;0.00;0.00;0.62;5.13;4.63;;;23.20;21.60;;;;;;2267458;61;20374;-65
2023/04/09 09:52:01;0.00;0.00;0.62;0.00;0.00;0.62;4.40;3.83;;;23.20;21.60;;;;;;2268143;61;20432;-67
2023/04/09 09:54:51;0.00;0.00;0.62;0.00;0.00;0.62;4.70;4.30;;;23.20;21.60;;;;;;2268144;61;20393;-65
2023/04/09 09:57:41;0.00;0.00;0.62;0.00;0.00;0.62;4.90;4.40;;;23.20;21.60;;;;;;2268506;61;20375;-66
2023/04/09 10:00:27;0.00;0.00;0.62;0.00;0.00;0.62;4.40;4.00;;;23.20;21.60;;;;;;2267827;61;20355;-65
2023/04/09 10:03:22;0.00;0.00;0.62;0.00;0.00;0.62;4.40;4.00;;;23.20;21.60;;;;;;2268374;61;20773;-65
2023/04/09 10:06:08;0.00;0.00;0.62;0.00;0.00;0.62;5.33;4.60;;;23.20;21.60;;;;;;2268186;61;20449;-66
2023/04/09 10:08:57;0.00;0.00;0.62;0.00;0.00;0.62;4.43;3.90;;;23.20;21.60;;;;;;2268056;61;20798;-65
2023/04/09 10:11:42;0.00;0.00;0.62;0.00;0.00;0.62;5.00;4.50;;;23.20;21.60;;;;;;2268045;61;20904;-64
2023/04/09 10:14:28;0.00;0.00;0.62;0.00;0.00;0.62;4.73;4.20;;;23.20;21.60;;;;;;2267770;61;20928;-65
2023/04/09 10:17:13;0.00;0.00;0.62;0.00;0.00;0.62;4.10;3.57;;;23.30;21.70;;;;;;2268186;61;20418;-65
2023/04/09 10:20:09;0.00;0.00;0.62;0.00;0.00;0.62;5.23;4.27;;;23.30;21.70;;;;;;2267868;61;20390;-68
2023/04/09 10:22:56;0.00;0.00;0.62;0.00;0.00;0.62;5.03;4.20;;;23.30;21.70;;;;;;2268233;61;20416;-66
2023/04/09 10:25:41;0.00;0.00;0.62;0.00;0.00;0.62;4.70;3.97;;;23.30;21.70;;;;;;2268480;61;20375;-65
2023/04/09 10:28:26;0.00;0.00;0.62;0.00;0.00;0.62;4.87;4.23;;;23.30;21.60;;;;;;2267730;61;20386;-67
2023/04/09 10:31:11;0.00;0.00;0.62;0.00;0.00;0.62;5.13;4.60;;;23.30;21.70;;;;;;2268121;61;20366;-65
2023/04/09 10:34:02;0.00;0.00;0.62;0.00;0.00;0.62;5.00;4.20;;;23.30;21.70;;;;;;2267735;61;20834;-65
2023/04/09 10:36:54;0.00;0.00;0.62;0.00;0.00;0.62;4.67;4.27;;;23.30;21.70;;;;;;2268635;61;20429;-65
2023/04/09 10:39:44;0.00;0.00;0.62;0.00;0.00;0.62;4.60;4.10;;;23.30;21.70;;;;;;2268454;61;20389;-65
2023/04/09 10:42:34;0.00;0.00;0.62;0.00;0.00;0.62;4.60;4.20;;;23.30;21.70;;;;;;2268801;61;20408;-65
2023/04/09 10:45:20;0.00;0.00;0.62;0.00;0.00;0.62;4.13;3.73;;;23.30;21.70;;;;;;2268471;61;20846;-64
2023/04/09 10:48:04;0.00;0.00;0.62;0.00;0.00;0.62;5.00;4.50;;;23.30;21.70;;;;;;2268891;61;20439;-64
2023/04/09 10:50:53;0.00;0.00;0.62;0.00;0.00;0.62;4.97;4.13;;;23.30;21.70;;;;;;2268182;61;20363;-69
2023/04/09 10:53:38;0.00;0.00;0.62;0.00;0.00;0.62;4.57;4.17;;;23.30;21.70;;;;;;2268819;61;20371;-65
2023/04/09 10:56:24;0.00;0.00;0.62;0.00;0.00;0.62;4.60;4.10;;;23.40;21.70;;;;;;2265515;61;20425;-65
2023/04/09 10:59:09;0.00;0.00;0.62;0.00;0.00;0.62;5.50;4.70;;;23.40;21.70;;;;;;2268351;61;20413;-66
2023/04/09 11:01:53;0.00;0.00;0.62;0.00;0.00;0.62;4.50;4.10;;;23.40;21.80;;;;;;2269018;61;20402;-65